createdAt,value
2019-01-17T00:02:42.155Z,72.20
2019-01-17T00:05:30.401Z,71.20
2019-01-17T00:08:23.414Z,71.20
2019-01-17T00:11:19.505Z,71.30
2019-01-17T00:14:18.388Z,71.30
2019-01-17T00:17:06.794Z,71.10
2019-01-17T00:19:47.757Z,71.30
2019-01-17T00:22:43.654Z,71.50
2019-01-17T00:25:38.152Z,71.60
2019-01-17T00:28:43.389Z,71.60
2019-01-17T00:31:40.293Z,71.60
2019-01-17T00:34:42.569Z,71.90
2019-01-17T00:37:35.484Z,71.90
2019-01-17T00:40:34.196Z,71.90
2019-01-17T00:43:36.159Z,71.80
2019-01-17T00:46:25.031Z,71.40
2019-01-17T00:49:13.422Z,71.40
2019-01-17T00:52:01.779Z,71.50
2019-01-17T00:55:06.932Z,71.40
2019-01-17T00:57:54.412Z,71.30
2019-01-17T01:01:02.327Z,71.50
2019-01-17T01:03:52.031Z,71.60
2019-01-17T01:06:40.490Z,71.40
2019-01-17T01:09:23.740Z,71.60
2019-01-17T01:12:22.873Z,71.50
2019-01-17T01:15:11.022Z,71.60
2019-01-17T01:17:48.957Z,71.50
2019-01-17T01:20:37.892Z,71.50
2019-01-17T01:23:37.307Z,71.70
2019-01-17T01:26:39.039Z,71.60
2019-01-17T01:29:44.192Z,71.30
2019-01-17T01:32:26.999Z,71.40
2019-01-17T01:35:15.978Z,71.50
2019-01-17T01:38:14.860Z,71.40
2019-01-17T01:41:02.912Z,71.30
2019-01-17T01:44:01.820Z,71.30
2019-01-17T01:46:57.959Z,71.20
2019-01-17T01:49:39.825Z,71.20
2019-01-17T01:52:31.488Z,71.10
2019-01-17T01:55:02.544Z,71.20
2019-01-17T01:57:33.520Z,71.00
2019-01-17T02:00:05.550Z,71.20
2019-01-17T02:02:36.595Z,71.20
2019-01-17T02:05:07.778Z,71.10
2019-01-17T02:07:39.009Z,71.10
2019-01-17T02:10:10.746Z,71.00
2019-01-17T02:12:41.830Z,71.10
2019-01-17T02:15:12.860Z,71.00
2019-01-17T02:17:43.860Z,70.60
2019-01-17T02:20:14.991Z,70.50
2019-01-17T02:22:45.980Z,70.50
2019-01-17T02:25:17.249Z,70.30
2019-01-17T02:27:48.287Z,70.10
2019-01-17T02:30:19.517Z,69.90
2019-01-17T02:32:50.909Z,70.40
2019-01-17T02:35:52.294Z,70.20
2019-01-17T02:38:23.946Z,70.20
2019-01-17T02:40:55.209Z,70.40
2019-01-17T02:43:26.177Z,69.60
2019-01-17T02:45:57.284Z,69.80
2019-01-17T02:48:28.554Z,69.90
2019-01-17T02:50:59.625Z,69.80
2019-01-17T02:53:31.944Z,70.10
2019-01-17T02:56:03.026Z,70.00
2019-01-17T02:58:34.816Z,70.20
2019-01-17T03:01:06.117Z,70.20
2019-01-17T03:03:37.381Z,70.20
2019-01-17T03:06:08.949Z,70.10
2019-01-17T03:08:40.098Z,70.20
2019-01-17T03:11:11.108Z,70.00
2019-01-17T03:13:42.078Z,69.80
2019-01-17T03:16:13.113Z,69.90
2019-01-17T03:18:44.335Z,69.50
2019-01-17T03:21:15.347Z,69.80
2019-01-17T03:23:46.384Z,70.00
2019-01-17T03:26:17.446Z,70.10
2019-01-17T03:28:48.530Z,70.40
2019-01-17T03:31:19.666Z,70.10
2019-01-17T03:33:50.731Z,70.00
2019-01-17T03:36:21.654Z,70.20
2019-01-17T03:38:52.804Z,70.60
2019-01-17T03:41:23.766Z,70.50
2019-01-17T03:43:54.736Z,70.40
2019-01-17T03:46:25.812Z,70.50
2019-01-17T03:48:56.896Z,70.70
2019-01-17T03:51:27.946Z,70.80
2019-01-17T03:53:58.946Z,70.70
2019-01-17T03:56:29.865Z,70.10
2019-01-17T03:59:01.205Z,70.60
2019-01-17T04:01:32.206Z,70.60
2019-01-17T04:04:03.200Z,70.70
2019-01-17T04:06:34.072Z,70.30
2019-01-17T04:09:07.554Z,70.90
2019-01-17T04:11:38.608Z,70.80
2019-01-17T04:14:09.689Z,70.80
2019-01-17T04:16:40.710Z,70.70
2019-01-17T04:19:11.808Z,70.80
2019-01-17T04:21:42.885Z,70.70
2019-01-17T04:24:14.035Z,70.60
2019-01-17T04:26:45.035Z,70.90
2019-01-17T04:29:17.442Z,70.00
2019-01-17T04:31:49.276Z,69.80
2019-01-17T04:34:20.330Z,70.00
2019-01-17T04:36:51.384Z,70.10
2019-01-17T04:39:22.423Z,69.90
2019-01-17T04:41:53.765Z,70.00
2019-01-17T04:44:25.295Z,69.70
2019-01-17T04:46:56.306Z,69.90
2019-01-17T04:49:27.923Z,70.00
2019-01-17T04:51:59.032Z,70.00
2019-01-17T04:54:30.351Z,69.80
2019-01-17T04:57:01.269Z,69.90
2019-01-17T04:59:32.325Z,69.80
2019-01-17T05:02:03.301Z,69.30
2019-01-17T05:04:34.427Z,69.30
2019-01-17T05:07:05.478Z,69.50
2019-01-17T05:09:36.790Z,69.60
2019-01-17T05:12:07.783Z,69.60
2019-01-17T05:14:38.774Z,69.60
2019-01-17T05:17:09.777Z,69.80
2019-01-17T05:19:41.003Z,69.70
2019-01-17T05:22:12.116Z,69.60
2019-01-17T05:24:43.351Z,69.60
2019-01-17T05:27:14.337Z,69.60
2019-01-17T05:29:45.413Z,69.70
2019-01-17T05:32:16.338Z,69.70
2019-01-17T05:34:47.380Z,69.70
2019-01-17T05:37:18.392Z,69.60
2019-01-17T05:39:50.107Z,69.60
2019-01-17T05:42:21.246Z,69.60
2019-01-17T05:44:52.878Z,69.50
2019-01-17T05:47:23.909Z,69.20
2019-01-17T05:49:55.060Z,69.30
2019-01-17T05:52:25.946Z,69.30
2019-01-17T05:54:56.868Z,69.40
2019-01-17T05:57:28.054Z,69.50
2019-01-17T05:59:59.124Z,69.70
2019-01-17T06:02:30.196Z,70.20
2019-01-17T06:05:01.283Z,70.40
2019-01-17T06:07:32.443Z,70.40
2019-01-17T06:10:03.691Z,70.20
2019-01-17T06:12:35.750Z,70.50
2019-01-17T06:15:08.859Z,70.40
2019-01-17T06:17:40.496Z,70.20
2019-01-17T06:20:13.323Z,70.30
2019-01-17T06:22:44.385Z,70.40
2019-01-17T06:25:16.132Z,70.60
2019-01-17T06:27:47.455Z,70.50
2019-01-17T06:30:19.180Z,70.50
2019-01-17T06:32:50.433Z,70.40
2019-01-17T06:35:21.380Z,70.50
2019-01-17T06:37:52.328Z,70.20
2019-01-17T06:40:26.406Z,69.90
2019-01-17T06:42:57.890Z,70.20
2019-01-17T06:45:29.034Z,70.10
2019-01-17T06:48:00.117Z,70.20
2019-01-17T06:50:31.851Z,70.80
2019-01-17T06:53:02.862Z,70.20
2019-01-17T06:55:34.591Z,70.20
2019-01-17T06:58:06.435Z,70.10
2019-01-17T07:00:38.276Z,70.20
2019-01-17T07:03:09.948Z,70.50
2019-01-17T07:05:41.181Z,70.50
2019-01-17T07:08:12.803Z,70.50
2019-01-17T07:10:44.525Z,70.40
2019-01-17T07:13:15.802Z,70.50
2019-01-17T07:15:47.659Z,70.40
2019-01-17T07:18:19.477Z,70.20
2019-01-17T07:20:51.218Z,70.30
2019-01-17T07:23:22.872Z,70.30
2019-01-17T07:25:53.948Z,70.30
2019-01-17T07:28:25.622Z,70.40
2019-01-17T07:30:57.279Z,70.30
2019-01-17T07:33:29.331Z,70.50
2019-01-17T07:36:01.094Z,70.30
2019-01-17T07:38:32.670Z,71.20
2019-01-17T07:41:04.607Z,70.60
2019-01-17T07:43:36.466Z,70.60
2019-01-17T07:46:08.208Z,70.20
2019-01-17T07:48:40.134Z,70.30
2019-01-17T07:51:11.975Z,70.40
2019-01-17T07:53:44.100Z,70.30
2019-01-17T07:56:16.000Z,70.20
2019-01-17T07:58:47.709Z,70.30
2019-01-17T08:01:19.328Z,70.10
2019-01-17T08:03:50.995Z,70.00
2019-01-17T08:06:24.878Z,70.30
2019-01-17T08:08:57.814Z,70.20
2019-01-17T08:11:29.764Z,70.40
2019-01-17T08:14:01.649Z,70.40
2019-01-17T08:16:33.424Z,70.80
2019-01-17T08:19:05.606Z,70.60
2019-01-17T08:21:37.918Z,70.50
2019-01-17T08:24:09.926Z,70.60
2019-01-17T08:26:42.025Z,70.60
2019-01-17T08:29:14.383Z,70.40
2019-01-17T08:31:46.210Z,70.50
2019-01-17T08:34:18.054Z,70.50
2019-01-17T08:36:49.817Z,70.50
2019-01-17T08:39:22.047Z,70.50
2019-01-17T08:41:57.529Z,70.90
2019-01-17T08:44:29.622Z,70.20
2019-01-17T08:47:01.726Z,70.10
2019-01-17T08:49:33.870Z,70.50
2019-01-17T08:52:06.557Z,70.60
2019-01-17T08:54:38.302Z,71.30
2019-01-17T08:57:10.087Z,70.50
2019-01-17T08:59:41.167Z,70.60
2019-01-17T09:02:12.275Z,70.50
2019-01-17T09:04:44.007Z,70.40
2019-01-17T09:07:15.738Z,70.60
2019-01-17T09:09:47.447Z,70.50
2019-01-17T09:12:19.613Z,70.40
2019-01-17T09:14:51.278Z,70.20
2019-01-17T09:17:22.898Z,70.20
2019-01-17T09:19:54.540Z,69.80
2019-01-17T09:22:26.221Z,69.90
2019-01-17T09:24:57.771Z,69.90
2019-01-17T09:27:29.014Z,69.90
2019-01-17T09:30:00.695Z,69.70
2019-01-17T09:32:32.849Z,69.50
2019-01-17T09:35:05.239Z,69.80
2019-01-17T09:37:37.515Z,69.90
2019-01-17T09:40:11.112Z,70.10
2019-01-17T09:42:44.216Z,70.50
2019-01-17T09:45:16.244Z,70.20
2019-01-17T09:47:49.594Z,70.00
2019-01-17T09:50:24.145Z,69.80
2019-01-17T09:52:56.507Z,69.50
2019-01-17T09:55:28.764Z,69.60
2019-01-17T09:58:00.758Z,69.80
2019-01-17T10:00:33.840Z,69.80
2019-01-17T10:03:06.617Z,69.70
2019-01-17T10:05:38.558Z,69.40
2019-01-17T10:08:10.801Z,69.00
2019-01-17T10:10:42.835Z,68.90
2019-01-17T10:13:15.195Z,69.00
2019-01-17T10:16:03.883Z,68.90
2019-01-17T10:19:34.553Z,69.20
2019-01-17T10:22:45.335Z,68.80
2019-01-17T10:26:21.005Z,68.80
2019-01-17T10:29:08.118Z,68.40
2019-01-17T10:32:19.309Z,68.60
2019-01-17T10:35:43.641Z,68.40
2019-01-17T10:38:25.112Z,68.10
2019-01-17T10:41:52.929Z,67.90
2019-01-17T10:44:35.953Z,68.10
2019-01-17T10:47:44.081Z,68.40
2019-01-17T10:51:05.019Z,68.30
2019-01-17T10:54:06.156Z,67.90
2019-01-17T10:56:53.145Z,67.70
2019-01-17T10:59:38.807Z,67.80
2019-01-17T11:02:41.261Z,67.60
2019-01-17T11:06:02.472Z,67.50
2019-01-17T11:09:19.320Z,67.70
2019-01-17T11:12:34.286Z,67.10
2019-01-17T11:15:29.842Z,67.00
2019-01-17T11:18:34.130Z,66.90
2019-01-17T11:21:43.160Z,66.90
2019-01-17T11:24:25.390Z,66.60
2019-01-17T11:27:52.668Z,66.70
2019-01-17T11:30:59.462Z,66.70
2019-01-17T11:33:52.063Z,66.50
2019-01-17T11:36:47.279Z,64.80
2019-01-17T11:39:33.316Z,64.90
2019-01-17T11:42:49.095Z,65.00
2019-01-17T11:45:38.341Z,65.30
2019-01-17T11:48:35.949Z,65.10
2019-01-17T11:51:21.164Z,64.90
2019-01-17T11:54:26.123Z,64.60
2019-01-17T11:57:49.966Z,64.40
2019-01-17T12:00:56.863Z,64.00
2019-01-17T12:04:10.317Z,63.70
2019-01-17T12:06:42.038Z,63.40
2019-01-17T12:09:13.916Z,63.20
2019-01-17T12:11:45.690Z,63.40
2019-01-17T12:14:17.374Z,62.90
2019-01-17T12:16:49.044Z,62.90
2019-01-17T12:19:20.213Z,63.20
2019-01-17T12:21:52.049Z,61.90
2019-01-17T12:24:23.705Z,61.30
2019-01-17T12:26:55.460Z,60.80
2019-01-17T12:29:27.085Z,61.40
2019-01-17T12:31:58.247Z,61.70
2019-01-17T12:34:30.255Z,61.80
2019-01-17T12:37:02.067Z,61.50
2019-01-17T12:39:33.963Z,62.20
2019-01-17T12:42:05.777Z,61.80
2019-01-17T12:44:37.467Z,62.10
2019-01-17T12:47:09.211Z,62.30
2019-01-17T12:49:40.885Z,62.40
2019-01-17T12:52:12.743Z,62.90
2019-01-17T12:54:44.483Z,63.20
2019-01-17T12:57:16.100Z,63.10
2019-01-17T12:59:47.807Z,63.00
2019-01-17T13:02:19.819Z,62.80
2019-01-17T13:04:51.619Z,62.70
2019-01-17T13:07:23.499Z,62.60
2019-01-17T13:09:54.660Z,62.50
2019-01-17T13:12:26.361Z,62.20
2019-01-17T13:14:57.859Z,61.30
2019-01-17T13:17:29.637Z,61.30
2019-01-17T13:20:01.464Z,61.20
2019-01-17T13:22:33.209Z,61.30
2019-01-17T13:25:09.156Z,62.10
2019-01-17T13:27:40.938Z,61.40
2019-01-17T13:30:32.358Z,61.60
2019-01-17T13:33:06.188Z,61.00
2019-01-17T13:35:38.001Z,61.50
2019-01-17T13:38:09.674Z,61.60
2019-01-17T13:40:41.447Z,61.10
2019-01-17T13:43:13.235Z,61.50
2019-01-17T13:45:44.868Z,61.50
2019-01-17T13:48:16.138Z,61.10
2019-01-17T13:50:50.711Z,61.10
2019-01-17T13:53:22.469Z,60.90
2019-01-17T13:55:54.208Z,61.10
2019-01-17T13:58:25.880Z,61.60
2019-01-17T14:00:57.501Z,61.20
2019-01-17T14:03:29.247Z,61.20
2019-01-17T14:06:00.898Z,61.40
2019-01-17T14:08:32.747Z,62.00
2019-01-17T14:11:04.516Z,61.20
2019-01-17T14:13:36.387Z,61.40
2019-01-17T14:16:08.800Z,61.70
2019-01-17T14:18:40.491Z,61.30
2019-01-17T14:21:12.698Z,60.70
2019-01-17T14:23:44.569Z,61.00
2019-01-17T14:26:16.582Z,61.00
2019-01-17T14:28:48.244Z,60.80
2019-01-17T14:31:19.844Z,60.90
2019-01-17T14:33:51.754Z,60.80
2019-01-17T14:36:23.363Z,61.10
2019-01-17T14:38:54.607Z,61.30
2019-01-17T14:41:26.204Z,61.40
2019-01-17T14:43:57.996Z,61.80
2019-01-17T14:46:29.687Z,62.00
2019-01-17T14:49:01.270Z,62.40
2019-01-17T14:51:32.909Z,62.50
2019-01-17T14:54:05.288Z,62.70
2019-01-17T14:56:36.995Z,62.30
2019-01-17T14:59:09.033Z,62.30
2019-01-17T15:01:40.364Z,62.50
2019-01-17T15:04:12.169Z,62.60
2019-01-17T15:06:43.811Z,63.00
2019-01-17T15:09:15.587Z,63.20
2019-01-17T15:11:47.149Z,63.30
2019-01-17T15:14:19.267Z,62.90
2019-01-17T15:16:51.406Z,62.80
2019-01-17T15:19:23.503Z,62.50
2019-01-17T15:21:55.100Z,61.90
2019-01-17T15:24:27.196Z,61.40
2019-01-17T15:26:58.871Z,60.30
2019-01-17T15:29:30.270Z,59.70
2019-01-17T15:32:01.332Z,59.30
2019-01-17T15:34:33.520Z,59.40
2019-01-17T15:37:05.500Z,59.10
2019-01-17T15:39:39.355Z,59.30
2019-01-17T15:42:11.110Z,59.30
2019-01-17T15:44:46.904Z,59.50
2019-01-17T15:47:18.775Z,59.50
2019-01-17T15:49:50.444Z,59.60
2019-01-17T15:52:22.285Z,59.80
2019-01-17T15:55:17.974Z,59.80
2019-01-17T15:57:52.131Z,60.10
2019-01-17T16:00:26.612Z,60.10
2019-01-17T16:02:58.255Z,60.00
2019-01-17T16:05:30.038Z,59.80
2019-01-17T16:08:01.300Z,59.80
2019-01-17T16:10:34.211Z,59.60
2019-01-17T16:13:06.741Z,59.80
2019-01-17T16:15:38.274Z,59.70
2019-01-17T16:18:09.875Z,59.70
2019-01-17T16:20:41.603Z,59.80
2019-01-17T16:23:12.835Z,59.60
2019-01-17T16:25:44.904Z,59.70
2019-01-17T16:28:16.173Z,59.60
2019-01-17T16:30:47.563Z,59.40
2019-01-17T16:33:19.270Z,59.30
2019-01-17T16:35:50.987Z,59.10
2019-01-17T16:38:22.697Z,59.10
2019-01-17T16:40:54.420Z,59.00
2019-01-17T16:43:26.137Z,58.90
2019-01-17T16:45:57.328Z,59.00
2019-01-17T16:48:28.930Z,59.20
2019-01-17T16:51:00.164Z,59.30
2019-01-17T16:53:31.611Z,59.30
2019-01-17T16:56:02.929Z,59.20
2019-01-17T16:58:34.376Z,59.10
2019-01-17T17:01:07.426Z,59.40
2019-01-17T17:03:39.051Z,59.20
2019-01-17T17:06:10.934Z,59.00
2019-01-17T17:08:43.326Z,59.20
2019-01-17T17:11:14.612Z,59.00
2019-01-17T17:13:45.979Z,58.80
2019-01-17T17:16:17.292Z,59.00
2019-01-17T17:18:48.928Z,59.00
2019-01-17T17:21:20.369Z,58.60
2019-01-17T17:23:51.730Z,58.70
2019-01-17T17:26:23.012Z,58.50
2019-01-17T17:28:54.430Z,58.90
2019-01-17T17:31:30.339Z,58.90
2019-01-17T17:34:01.889Z,59.10
2019-01-17T17:36:33.168Z,59.20
2019-01-17T17:39:06.055Z,59.20
2019-01-17T17:41:38.879Z,59.20
2019-01-17T17:44:10.103Z,59.30
2019-01-17T17:46:41.183Z,59.50
2019-01-17T17:49:12.370Z,59.60
2019-01-17T17:51:43.404Z,59.60
2019-01-17T17:54:14.553Z,59.70
2019-01-17T17:56:46.960Z,59.80
2019-01-17T17:59:18.579Z,59.90
2019-01-17T18:01:57.930Z,59.90
2019-01-17T18:04:29.686Z,59.90
2019-01-17T18:07:03.306Z,59.80
2019-01-17T18:09:35.255Z,60.10
2019-01-17T18:12:08.591Z,59.70
2019-01-17T18:14:40.736Z,59.90
2019-01-17T18:17:12.623Z,59.80
2019-01-17T18:19:46.583Z,59.70
2019-01-17T18:22:22.336Z,59.90
2019-01-17T18:24:54.200Z,59.90
2019-01-17T18:27:45.618Z,60.00
2019-01-17T18:30:20.739Z,59.90
2019-01-17T18:32:52.536Z,59.70
2019-01-17T18:35:24.083Z,59.90
2019-01-17T18:37:55.823Z,59.60
2019-01-17T18:40:27.643Z,59.70
2019-01-17T18:42:58.844Z,59.70
2019-01-17T18:48:55.096Z,59.70
2019-01-17T18:51:26.881Z,59.80
2019-01-17T18:53:58.582Z,59.70
2019-01-17T18:56:30.427Z,59.40
2019-01-17T18:59:02.251Z,59.20
2019-01-17T19:01:34.291Z,59.10
2019-01-17T19:04:06.006Z,59.00
2019-01-17T19:06:37.205Z,59.10
2019-01-17T19:09:09.308Z,59.00
2019-01-17T19:11:41.057Z,59.00
2019-01-17T19:14:12.253Z,58.90
2019-01-17T19:16:43.940Z,59.00
2019-01-17T19:19:18.684Z,59.00
2019-01-17T19:21:50.036Z,58.80
2019-01-17T19:24:21.264Z,58.90
2019-01-17T19:26:52.596Z,58.70
2019-01-17T19:29:24.967Z,58.50
2019-01-17T19:31:57.010Z,59.10
2019-01-17T19:34:28.814Z,58.50
2019-01-17T19:37:00.574Z,58.60
2019-01-17T19:39:35.926Z,58.60
2019-01-17T19:42:07.597Z,58.40
2019-01-17T19:44:40.444Z,58.40
2019-01-17T19:47:11.846Z,58.30
2019-01-17T19:49:43.164Z,58.40
2019-01-17T19:52:14.355Z,58.40
2019-01-17T19:54:45.790Z,58.50
2019-01-17T19:57:17.202Z,58.50
2019-01-17T19:59:52.068Z,58.50
2019-01-17T20:02:23.725Z,58.50
2019-01-17T20:04:57.142Z,58.50
2019-01-17T20:07:29.336Z,58.70
2019-01-17T20:10:00.999Z,58.60
2019-01-17T20:12:34.096Z,58.60
2019-01-17T20:15:06.904Z,58.50
2019-01-17T20:17:38.798Z,58.40
2019-01-17T20:20:12.418Z,58.40
2019-01-17T20:22:46.374Z,58.30
2019-01-17T20:25:20.085Z,58.30
2019-01-17T20:27:51.456Z,58.20
2019-01-17T20:30:31.036Z,58.20
2019-01-17T20:33:04.484Z,58.20
2019-01-17T20:35:36.485Z,58.30
2019-01-17T20:38:08.781Z,58.20
2019-01-17T20:40:40.615Z,58.20
2019-01-17T20:43:11.540Z,58.30
2019-01-17T20:45:43.323Z,58.40
2019-01-17T20:48:14.976Z,58.40
2019-01-17T20:50:46.176Z,59.10
2019-01-17T20:53:17.929Z,58.50
2019-01-17T20:55:50.012Z,58.60
2019-01-17T20:58:21.818Z,58.60
2019-01-17T21:01:52.327Z,58.60
2019-01-17T21:04:24.035Z,58.60
2019-01-17T21:06:55.452Z,58.70
2019-01-17T21:09:29.942Z,58.80
2019-01-17T21:12:01.206Z,58.80
2019-01-17T21:14:35.285Z,58.90
2019-01-17T21:17:06.529Z,58.90
2019-01-17T21:19:37.446Z,58.90
2019-01-17T21:22:09.641Z,58.90
2019-01-17T21:24:40.982Z,59.10
2019-01-17T21:27:12.404Z,59.20
2019-01-17T21:29:43.305Z,59.30
2019-01-17T21:32:18.131Z,59.50
2019-01-17T21:34:48.995Z,59.60
2019-01-17T21:39:49.556Z,59.60
2019-01-17T21:42:20.504Z,59.70
2019-01-17T21:44:51.518Z,59.80
2019-01-17T21:47:22.498Z,59.90
2019-01-17T21:49:53.503Z,60.00
2019-01-17T21:52:24.665Z,60.00
2019-01-17T21:54:56.891Z,60.20
2019-01-17T21:57:27.868Z,60.20
2019-01-17T21:59:59.005Z,60.20
2019-01-17T22:02:30.037Z,60.20
2019-01-17T22:05:01.125Z,60.30
2019-01-17T22:07:34.302Z,60.30
2019-01-17T22:10:07.613Z,60.40
2019-01-17T22:12:39.004Z,60.30
2019-01-17T22:15:13.584Z,60.20
2019-01-17T22:17:44.626Z,60.10
2019-01-17T22:20:15.915Z,60.30
2019-01-17T22:22:47.179Z,60.40
2019-01-17T22:25:18.998Z,60.30
2019-01-17T22:27:51.251Z,60.30
2019-01-17T22:30:24.384Z,60.30
2019-01-17T22:32:55.464Z,60.30
2019-01-17T22:35:26.713Z,60.40
2019-01-17T22:37:57.794Z,60.40
2019-01-17T22:40:28.865Z,60.50
2019-01-17T22:43:01.057Z,60.60
2019-01-17T22:45:33.923Z,60.70
2019-01-17T22:48:05.241Z,60.80
2019-01-17T22:50:36.321Z,60.90
2019-01-17T22:53:07.906Z,61.10
2019-01-17T22:55:40.769Z,61.00
2019-01-17T22:58:11.789Z,61.10
2019-01-17T23:01:10.265Z,61.20
2019-01-17T23:03:48.319Z,61.20
2019-01-17T23:06:19.614Z,61.20
2019-01-17T23:08:50.832Z,61.30
2019-01-17T23:11:22.092Z,61.30
2019-01-17T23:13:53.047Z,61.50
2019-01-17T23:16:24.085Z,61.60
2019-01-17T23:18:55.264Z,61.60
2019-01-17T23:21:27.023Z,61.70
2019-01-17T23:23:57.068Z,61.60
2019-01-17T23:26:28.065Z,61.60
2019-01-17T23:28:59.159Z,61.60
2019-01-17T23:31:30.170Z,61.60
2019-01-17T23:34:01.246Z,61.60
2019-01-17T23:36:32.198Z,61.60
2019-01-17T23:39:05.932Z,61.80
2019-01-17T23:41:40.581Z,61.70
2019-01-17T23:44:11.563Z,61.80
2019-01-17T23:46:42.566Z,61.80
2019-01-17T23:49:13.453Z,61.80
2019-01-17T23:51:45.059Z,61.80
2019-01-17T23:54:16.083Z,62.00
2019-01-17T23:56:47.203Z,62.30
2019-01-17T23:59:22.614Z,62.30
